createdAt,value
2019-06-20T00:00:52.381Z,17.70
2019-06-20T00:03:21.407Z,17.60
2019-06-20T00:05:50.429Z,17.60
2019-06-20T00:08:19.449Z,17.60
2019-06-20T00:10:48.519Z,17.60
2019-06-20T00:13:17.474Z,17.50
2019-06-20T00:15:46.415Z,17.50
2019-06-20T00:18:15.498Z,17.40
2019-06-20T00:20:44.556Z,17.40
2019-06-20T00:23:13.470Z,17.40
2019-06-20T00:25:42.464Z,17.50
2019-06-20T00:28:11.367Z,17.50
2019-06-20T00:30:40.825Z,17.40
2019-06-20T00:33:09.798Z,17.40
2019-06-20T00:35:38.791Z,17.40
2019-06-20T00:38:07.676Z,17.30
2019-06-20T00:40:36.887Z,17.30
2019-06-20T00:43:16.978Z,17.40
2019-06-20T00:45:36.707Z,17.30
2019-06-20T00:48:05.838Z,17.30
2019-06-20T00:50:34.792Z,17.40
2019-06-20T00:53:04.011Z,17.40
2019-06-20T00:55:32.978Z,17.40
2019-06-20T00:58:01.925Z,17.40
2019-06-20T01:00:31.017Z,17.40
2019-06-20T01:03:00.132Z,17.40
2019-06-20T01:05:29.114Z,17.30
2019-06-20T01:07:58.015Z,17.30
2019-06-20T01:10:26.963Z,17.30
2019-06-20T01:12:55.954Z,17.30
2019-06-20T01:15:25.043Z,17.30
2019-06-20T01:17:54.134Z,17.30
2019-06-20T01:20:23.381Z,17.20
2019-06-20T01:22:52.434Z,17.20
2019-06-20T01:25:38.279Z,17.20
2019-06-20T01:28:07.531Z,17.10
2019-06-20T01:30:36.658Z,17.10
2019-06-20T01:33:06.055Z,17.10
2019-06-20T01:35:35.323Z,17.10
2019-06-20T01:38:04.393Z,17.20
2019-06-20T01:40:33.579Z,17.20
2019-06-20T01:43:02.963Z,17.20
2019-06-20T01:45:32.059Z,17.20
2019-06-20T01:48:01.152Z,17.20
2019-06-20T01:50:30.164Z,17.20
2019-06-20T01:52:59.059Z,17.20
2019-06-20T01:55:28.031Z,17.20
2019-06-20T01:57:57.007Z,17.20
2019-06-20T02:00:44.973Z,17.20
2019-06-20T02:03:14.583Z,17.20
2019-06-20T02:05:43.823Z,17.20
2019-06-20T02:08:12.865Z,17.20
2019-06-20T02:10:42.059Z,17.20
2019-06-20T02:13:11.263Z,17.20
2019-06-20T02:15:40.527Z,17.20
2019-06-20T02:18:09.756Z,17.20
2019-06-20T02:20:40.520Z,17.10
2019-06-20T02:23:09.577Z,17.10
2019-06-20T02:25:38.639Z,17.10
2019-06-20T02:28:07.775Z,17.10
2019-06-20T02:30:36.858Z,17.10
2019-06-20T02:33:06.027Z,17.10
2019-06-20T02:35:35.043Z,17.00
2019-06-20T02:38:04.145Z,17.10
2019-06-20T02:40:33.239Z,17.00
2019-06-20T02:43:02.334Z,17.00
2019-06-20T02:45:31.346Z,17.10
2019-06-20T02:48:00.707Z,17.00
2019-06-20T02:50:30.036Z,17.00
2019-06-20T02:52:59.027Z,17.00
2019-06-20T02:55:28.114Z,16.90
2019-06-20T02:57:57.179Z,16.90
2019-06-20T03:00:53.210Z,16.90
2019-06-20T03:03:22.262Z,16.90
2019-06-20T03:05:51.495Z,16.80
2019-06-20T03:08:20.846Z,16.70
2019-06-20T03:10:50.104Z,16.70
2019-06-20T03:13:19.251Z,16.60
2019-06-20T03:15:50.067Z,16.70
2019-06-20T03:18:19.443Z,16.70
2019-06-20T03:20:48.494Z,16.70
2019-06-20T03:23:17.447Z,16.70
2019-06-20T03:25:46.663Z,16.70
2019-06-20T03:28:15.768Z,16.70
2019-06-20T03:30:44.888Z,16.80
2019-06-20T03:33:14.159Z,16.90
2019-06-20T03:35:43.428Z,16.90
2019-06-20T03:38:15.649Z,16.90
2019-06-20T03:40:44.801Z,16.80
2019-06-20T03:43:13.875Z,16.90
2019-06-20T03:45:42.892Z,16.90
2019-06-20T03:48:11.827Z,16.90
2019-06-20T03:50:40.819Z,16.90
2019-06-20T03:53:09.938Z,16.90
2019-06-20T03:55:39.064Z,16.90
2019-06-20T03:58:08.193Z,16.90
2019-06-20T04:00:37.671Z,16.90
2019-06-20T04:03:06.997Z,17.00
2019-06-20T04:05:36.600Z,17.00
2019-06-20T04:08:05.624Z,17.00
2019-06-20T04:10:35.346Z,16.90
2019-06-20T04:13:04.391Z,16.80
2019-06-20T04:15:33.799Z,16.80
2019-06-20T04:18:02.867Z,16.80
2019-06-20T04:20:31.847Z,16.80
2019-06-20T04:23:00.830Z,16.70
2019-06-20T04:25:29.799Z,16.70
2019-06-20T04:27:58.704Z,16.70
2019-06-20T04:30:27.675Z,16.80
2019-06-20T04:32:56.638Z,16.90
2019-06-20T04:35:25.620Z,16.80
2019-06-20T04:37:54.486Z,16.90
2019-06-20T04:40:23.511Z,17.00
2019-06-20T04:42:52.432Z,17.10
2019-06-20T04:45:35.018Z,17.10
2019-06-20T04:48:01.920Z,17.10
2019-06-20T04:50:30.870Z,17.10
2019-06-20T04:52:59.770Z,17.10
2019-06-20T04:55:28.884Z,17.20
2019-06-20T04:57:57.936Z,17.30
2019-06-20T05:00:27.036Z,17.40
2019-06-20T05:02:56.035Z,17.40
2019-06-20T05:05:25.005Z,17.40
2019-06-20T05:07:54.006Z,17.50
2019-06-20T05:10:22.926Z,17.60
2019-06-20T05:12:52.000Z,17.70
2019-06-20T05:15:20.979Z,17.80
2019-06-20T05:17:49.991Z,17.80
2019-06-20T05:20:19.011Z,17.80
2019-06-20T05:22:48.079Z,17.90
2019-06-20T05:25:17.293Z,17.90
2019-06-20T05:27:46.283Z,17.90
2019-06-20T05:30:15.748Z,17.90
2019-06-20T05:32:44.821Z,17.80
2019-06-20T05:35:14.071Z,17.90
2019-06-20T05:37:43.061Z,17.80
2019-06-20T05:40:12.377Z,17.80
2019-06-20T05:42:41.481Z,17.90
2019-06-20T05:45:10.775Z,17.90
2019-06-20T05:47:39.651Z,17.90
2019-06-20T05:50:09.071Z,18.00
2019-06-20T05:52:38.030Z,18.10
2019-06-20T05:55:07.440Z,18.20
2019-06-20T05:57:36.569Z,18.40
2019-06-20T06:00:06.566Z,18.50
2019-06-20T06:02:35.645Z,18.60
2019-06-20T06:05:06.495Z,18.60
2019-06-20T06:07:35.566Z,18.60
2019-06-20T06:10:05.864Z,18.70
2019-06-20T06:12:36.336Z,18.70
2019-06-20T06:15:06.431Z,18.80
2019-06-20T06:17:36.311Z,18.80
2019-06-20T06:20:06.134Z,18.90
2019-06-20T06:22:35.169Z,18.90
2019-06-20T06:25:04.531Z,19.00
2019-06-20T06:27:33.586Z,19.10
2019-06-20T06:30:02.642Z,19.10
2019-06-20T06:32:40.045Z,19.30
2019-06-20T06:35:02.337Z,19.30
2019-06-20T06:37:31.499Z,19.20
2019-06-20T06:40:00.367Z,19.30
2019-06-20T06:42:29.359Z,19.30
2019-06-20T06:44:58.261Z,19.30
2019-06-20T06:47:27.247Z,19.40
2019-06-20T06:49:56.160Z,19.40
2019-06-20T06:52:25.051Z,19.40
2019-06-20T06:54:54.044Z,19.50
2019-06-20T06:57:23.056Z,19.50
2019-06-20T06:59:52.280Z,19.40
2019-06-20T07:02:21.331Z,19.30
2019-06-20T07:04:50.266Z,19.30
2019-06-20T07:07:19.358Z,19.30
2019-06-20T07:09:48.472Z,19.20
2019-06-20T07:12:17.450Z,19.20
2019-06-20T07:14:46.390Z,19.10
2019-06-20T07:17:15.286Z,19.20
2019-06-20T07:19:44.259Z,19.40
2019-06-20T07:22:13.335Z,19.70
2019-06-20T07:24:42.470Z,19.90
2019-06-20T07:27:11.411Z,19.90
2019-06-20T07:29:40.380Z,19.90
2019-06-20T07:32:09.284Z,19.90
2019-06-20T07:34:38.239Z,19.90
2019-06-20T07:37:07.206Z,19.80
2019-06-20T07:39:36.158Z,19.90
2019-06-20T07:42:05.246Z,20.10
2019-06-20T07:44:34.312Z,20.20
2019-06-20T07:47:16.705Z,20.30
2019-06-20T07:49:33.968Z,20.20
2019-06-20T07:52:02.958Z,20.30
2019-06-20T07:54:31.884Z,20.60
2019-06-20T07:57:00.818Z,20.80
2019-06-20T07:59:29.714Z,20.90
2019-06-20T08:01:58.626Z,21.10
2019-06-20T08:04:27.695Z,21.10
2019-06-20T08:06:56.625Z,21.20
2019-06-20T08:09:40.597Z,21.30
2019-06-20T08:11:56.308Z,21.70
2019-06-20T08:14:25.369Z,22.00
2019-06-20T08:16:54.530Z,22.10
2019-06-20T08:19:23.571Z,22.00
2019-06-20T08:21:52.512Z,22.20
2019-06-20T08:24:21.461Z,22.60
2019-06-20T08:26:50.505Z,22.90
2019-06-20T08:29:21.290Z,23.00
2019-06-20T08:31:50.167Z,22.90
2019-06-20T08:34:19.252Z,22.80
2019-06-20T08:36:48.321Z,22.50
2019-06-20T08:39:17.316Z,22.30
2019-06-20T08:41:46.300Z,22.10
2019-06-20T08:44:15.238Z,22.20
2019-06-20T08:46:44.123Z,22.10
2019-06-20T08:49:13.183Z,22.10
2019-06-20T08:51:42.337Z,22.20
2019-06-20T08:54:11.248Z,22.30
2019-06-20T08:56:40.349Z,22.40
2019-06-20T08:59:23.505Z,22.40
2019-06-20T09:01:40.163Z,22.30
2019-06-20T09:04:09.252Z,22.40
2019-06-20T09:06:38.307Z,22.30
2019-06-20T09:09:08.221Z,22.00
2019-06-20T09:11:37.382Z,21.90
2019-06-20T09:14:06.539Z,21.80
2019-06-20T09:16:35.658Z,21.80
2019-06-20T09:19:04.710Z,21.80
2019-06-20T09:21:33.795Z,21.90
2019-06-20T09:24:04.109Z,22.10
2019-06-20T09:26:33.249Z,22.20
2019-06-20T09:29:04.149Z,22.30
2019-06-20T09:31:32.883Z,22.50
2019-06-20T09:34:05.270Z,22.70
2019-06-20T09:36:32.490Z,22.80
2019-06-20T09:39:01.378Z,22.90
2019-06-20T09:41:30.320Z,23.00
2019-06-20T09:43:59.215Z,22.90
2019-06-20T09:46:28.238Z,22.80
2019-06-20T09:48:58.621Z,22.90
2019-06-20T09:51:27.802Z,23.00
2019-06-20T09:53:56.721Z,23.20
2019-06-20T09:56:25.664Z,23.20
2019-06-20T09:58:55.306Z,23.10
2019-06-20T10:01:24.400Z,23.00
2019-06-20T10:03:54.667Z,22.90
2019-06-20T10:06:23.745Z,22.80
2019-06-20T10:08:52.726Z,22.80
2019-06-20T10:11:21.858Z,23.00
2019-06-20T10:13:52.168Z,23.20
2019-06-20T10:16:21.311Z,23.40
2019-06-20T10:18:50.271Z,23.50
2019-06-20T10:21:19.258Z,23.70
2019-06-20T10:23:49.448Z,23.80
2019-06-20T10:26:18.772Z,24.10
2019-06-20T10:28:49.117Z,24.20
2019-06-20T10:31:18.246Z,24.40
2019-06-20T10:33:48.395Z,24.50
2019-06-20T10:36:17.602Z,24.60
2019-06-20T10:38:47.999Z,24.70
2019-06-20T10:41:17.115Z,24.80
2019-06-20T10:43:47.367Z,25.00
2019-06-20T10:46:16.585Z,25.20
2019-06-20T10:48:45.969Z,25.60
2019-06-20T10:51:32.950Z,25.80
2019-06-20T10:54:02.273Z,25.80
2019-06-20T10:56:31.371Z,25.90
2019-06-20T10:59:00.454Z,25.70
2019-06-20T11:01:30.062Z,25.40
2019-06-20T11:03:58.971Z,25.20
2019-06-20T11:06:27.973Z,25.00
2019-06-20T11:08:56.870Z,25.00
2019-06-20T11:11:25.967Z,25.10
2019-06-20T11:13:55.111Z,25.40
2019-06-20T11:16:24.235Z,25.60
2019-06-20T11:18:53.194Z,25.50
2019-06-20T11:21:22.161Z,25.30
2019-06-20T11:23:51.113Z,25.00
2019-06-20T11:26:20.235Z,24.80
2019-06-20T11:28:49.262Z,24.50
2019-06-20T11:31:18.188Z,24.30
2019-06-20T11:33:48.344Z,24.00
2019-06-20T11:36:17.612Z,23.90
2019-06-20T11:38:46.926Z,23.90
2019-06-20T11:41:16.170Z,24.20
2019-06-20T11:43:45.199Z,24.50
2019-06-20T11:46:14.171Z,24.90
2019-06-20T11:48:43.121Z,25.10
2019-06-20T11:51:12.335Z,25.20
2019-06-20T11:53:42.649Z,25.10
2019-06-20T11:56:11.776Z,25.20
2019-06-20T11:58:40.835Z,25.00
2019-06-20T12:01:09.730Z,25.10
2019-06-20T12:03:39.613Z,25.10
2019-06-20T12:06:09.312Z,24.80
2019-06-20T12:08:39.645Z,24.80
2019-06-20T12:11:08.899Z,24.80
2019-06-20T12:13:38.892Z,24.70
2019-06-20T12:16:08.687Z,24.70
2019-06-20T12:18:39.757Z,24.80
2019-06-20T12:21:08.533Z,24.90
2019-06-20T12:23:38.969Z,25.00
2019-06-20T12:26:08.236Z,25.10
2019-06-20T12:28:39.011Z,25.20
2019-06-20T12:31:18.882Z,25.20
2019-06-20T12:33:39.585Z,25.30
2019-06-20T12:36:09.247Z,25.20
2019-06-20T12:38:39.396Z,25.20
2019-06-20T12:41:09.078Z,25.20
2019-06-20T12:43:39.043Z,25.10
2019-06-20T12:46:08.682Z,25.00
2019-06-20T12:48:38.137Z,25.00
2019-06-20T12:51:08.452Z,25.00
2019-06-20T12:53:38.688Z,25.00
2019-06-20T12:56:07.814Z,25.00
2019-06-20T12:58:37.341Z,24.80
2019-06-20T13:01:07.623Z,24.80
2019-06-20T13:03:38.585Z,24.90
2019-06-20T13:06:07.246Z,24.80
2019-06-20T13:08:36.339Z,24.60
2019-06-20T13:11:05.453Z,24.40
2019-06-20T13:13:34.426Z,24.30
2019-06-20T13:16:03.383Z,24.50
2019-06-20T13:18:32.351Z,24.70
2019-06-20T13:21:01.390Z,24.80
2019-06-20T13:23:30.358Z,24.70
2019-06-20T13:25:59.351Z,24.80
2019-06-20T13:28:28.415Z,24.90
2019-06-20T13:30:57.840Z,24.90
2019-06-20T13:33:28.404Z,24.80
2019-06-20T13:35:57.390Z,24.80
2019-06-20T13:38:26.418Z,24.70
2019-06-20T13:40:55.383Z,24.40
2019-06-20T13:43:24.334Z,24.30
2019-06-20T13:45:54.225Z,24.10
2019-06-20T13:48:23.353Z,24.10
2019-06-20T13:50:52.435Z,23.90
2019-06-20T13:53:21.474Z,23.90
2019-06-20T13:55:50.521Z,23.90
2019-06-20T13:58:19.637Z,24.00
2019-06-20T14:00:48.637Z,24.10
2019-06-20T14:03:17.698Z,24.20
2019-06-20T14:05:47.250Z,24.50
2019-06-20T14:08:16.464Z,24.60
2019-06-20T14:10:46.467Z,24.70
2019-06-20T14:13:19.609Z,24.60
2019-06-20T14:15:48.547Z,24.40
2019-06-20T14:18:17.684Z,24.40
2019-06-20T14:20:46.742Z,24.50
2019-06-20T14:23:15.870Z,24.50
2019-06-20T14:25:46.233Z,24.40
2019-06-20T14:28:15.339Z,24.20
2019-06-20T14:30:45.039Z,24.00
2019-06-20T14:33:15.553Z,23.80
2019-06-20T14:35:46.099Z,23.60
2019-06-20T14:38:15.256Z,23.50
2019-06-20T14:40:45.303Z,23.40
2019-06-20T14:43:14.551Z,23.30
2019-06-20T14:45:45.131Z,23.20
2019-06-20T14:48:14.751Z,23.10
2019-06-20T14:50:44.605Z,23.00
2019-06-20T14:53:14.487Z,23.20
2019-06-20T14:55:44.818Z,23.30
2019-06-20T14:58:16.044Z,23.40
2019-06-20T15:00:46.469Z,23.60
2019-06-20T15:03:15.807Z,23.70
2019-06-20T15:05:46.449Z,23.80
2019-06-20T15:08:15.697Z,23.80
2019-06-20T15:10:46.527Z,23.90
2019-06-20T15:13:15.531Z,23.90
2019-06-20T15:15:44.853Z,23.90
2019-06-20T15:18:15.652Z,23.80
2019-06-20T15:20:45.177Z,23.80
2019-06-20T15:23:15.489Z,23.80
2019-06-20T15:25:45.819Z,23.80
2019-06-20T15:28:15.316Z,23.90
2019-06-20T15:30:47.221Z,24.00
2019-06-20T15:33:17.710Z,24.10
2019-06-20T15:35:47.204Z,24.10
2019-06-20T15:38:17.551Z,24.10
2019-06-20T15:40:47.902Z,24.10
2019-06-20T15:43:17.115Z,24.00
2019-06-20T15:45:48.348Z,23.80
2019-06-20T15:48:16.651Z,23.80
2019-06-20T15:50:45.872Z,23.70
2019-06-20T15:53:14.786Z,23.60
2019-06-20T15:55:43.987Z,23.60
2019-06-20T15:58:13.055Z,23.60
2019-06-20T16:00:42.185Z,23.60
2019-06-20T16:03:14.547Z,23.60
2019-06-20T16:05:42.186Z,23.50
2019-06-20T16:08:11.299Z,23.60
2019-06-20T16:10:40.949Z,23.60
2019-06-20T16:13:09.955Z,23.60
2019-06-20T16:15:39.212Z,23.50
2019-06-20T16:18:08.330Z,23.50
2019-06-20T16:20:37.423Z,23.40
2019-06-20T16:23:06.509Z,23.40
2019-06-20T16:25:35.477Z,23.30
2019-06-20T16:28:04.530Z,23.30
2019-06-20T16:30:33.865Z,23.40
2019-06-20T16:33:02.994Z,23.40
2019-06-20T16:35:32.044Z,23.50
2019-06-20T16:38:01.095Z,23.50
2019-06-20T16:40:44.368Z,23.50
2019-06-20T16:43:13.454Z,23.50
2019-06-20T16:45:42.552Z,23.50
2019-06-20T16:48:11.773Z,23.50
2019-06-20T16:50:40.845Z,23.40
2019-06-20T16:53:09.835Z,23.40
2019-06-20T16:55:38.972Z,23.30
2019-06-20T16:58:08.076Z,23.30
2019-06-20T17:00:37.821Z,23.20
2019-06-20T17:03:06.885Z,23.20
2019-06-20T17:05:36.013Z,23.10
2019-06-20T17:08:05.189Z,23.10
2019-06-20T17:10:34.166Z,23.00
2019-06-20T17:13:03.143Z,22.90
2019-06-20T17:15:32.142Z,22.90
2019-06-20T17:18:01.203Z,22.90
2019-06-20T17:20:30.306Z,22.90
2019-06-20T17:22:59.680Z,22.90
2019-06-20T17:25:28.796Z,23.00
2019-06-20T17:27:57.938Z,23.00
2019-06-20T17:30:28.754Z,23.00
2019-06-20T17:32:57.959Z,22.90
2019-06-20T17:35:27.029Z,22.80
2019-06-20T17:37:56.157Z,22.80
2019-06-20T17:40:25.698Z,22.80
2019-06-20T17:42:54.856Z,22.70
2019-06-20T17:45:24.694Z,22.70
2019-06-20T17:47:53.934Z,22.60
2019-06-20T17:50:25.829Z,22.50
2019-06-20T17:52:54.574Z,22.50
2019-06-20T17:55:23.644Z,22.40
2019-06-20T17:57:52.712Z,22.50
2019-06-20T18:00:23.121Z,22.70
2019-06-20T18:02:52.185Z,22.80
2019-06-20T18:05:22.619Z,22.80
2019-06-20T18:07:51.664Z,22.80
2019-06-20T18:10:21.810Z,22.80
2019-06-20T18:12:50.826Z,22.70
2019-06-20T18:15:21.159Z,22.60
2019-06-20T18:17:50.221Z,22.60
2019-06-20T18:20:19.626Z,22.60
2019-06-20T18:22:48.723Z,22.50
2019-06-20T18:25:17.924Z,22.40
2019-06-20T18:27:47.023Z,22.40
2019-06-20T18:30:16.407Z,22.30
2019-06-20T18:32:45.307Z,22.20
2019-06-20T18:35:14.316Z,22.10
2019-06-20T18:37:43.304Z,22.00
2019-06-20T18:40:12.814Z,21.90
2019-06-20T18:42:41.851Z,21.90
2019-06-20T18:45:12.797Z,21.90
2019-06-20T18:47:41.870Z,21.80
2019-06-20T18:50:12.416Z,21.80
2019-06-20T18:52:51.722Z,21.80
2019-06-20T18:55:12.621Z,21.70
2019-06-20T18:57:41.703Z,21.60
2019-06-20T19:00:11.495Z,21.60
2019-06-20T19:02:40.611Z,21.60
2019-06-20T19:05:10.239Z,21.50
2019-06-20T19:07:39.293Z,21.40
2019-06-20T19:10:08.801Z,21.40
2019-06-20T19:12:37.945Z,21.30
2019-06-20T19:15:07.313Z,21.20
2019-06-20T19:17:36.363Z,21.20
2019-06-20T19:20:06.046Z,21.20
2019-06-20T19:22:35.288Z,21.20
2019-06-20T19:25:11.527Z,21.10
2019-06-20T19:27:46.022Z,20.90
2019-06-20T19:30:09.678Z,20.70
2019-06-20T19:32:38.771Z,20.60
2019-06-20T19:35:10.295Z,20.50
2019-06-20T19:37:39.524Z,20.40
2019-06-20T19:40:10.065Z,20.30
2019-06-20T19:42:39.184Z,20.30
2019-06-20T19:45:10.748Z,20.30
2019-06-20T19:47:40.208Z,20.30
2019-06-20T19:50:09.930Z,20.20
2019-06-20T19:52:39.113Z,20.10
2019-06-20T19:55:08.704Z,20.00
2019-06-20T19:57:38.070Z,20.00
2019-06-20T20:00:07.954Z,19.90
2019-06-20T20:02:37.966Z,19.80
2019-06-20T20:05:18.421Z,19.80
2019-06-20T20:07:39.793Z,19.70
2019-06-20T20:10:09.823Z,19.70
2019-06-20T20:12:38.995Z,19.90
2019-06-20T20:15:08.733Z,20.10
2019-06-20T20:17:37.870Z,20.10
2019-06-20T20:20:07.362Z,20.10
2019-06-20T20:22:36.650Z,20.00
2019-06-20T20:25:06.323Z,20.00
2019-06-20T20:27:35.475Z,20.00
2019-06-20T20:30:05.366Z,20.20
2019-06-20T20:32:34.387Z,20.30
2019-06-20T20:35:03.361Z,20.40
2019-06-20T20:37:32.468Z,20.30
2019-06-20T20:40:01.509Z,20.30
2019-06-20T20:42:30.639Z,20.20
2019-06-20T20:44:59.746Z,20.20
2019-06-20T20:47:28.828Z,20.20
2019-06-20T20:49:57.810Z,20.10
2019-06-20T20:52:26.787Z,20.00
2019-06-20T20:54:55.889Z,19.90
2019-06-20T20:57:24.936Z,19.80
2019-06-20T20:59:53.923Z,19.70
2019-06-20T21:02:23.093Z,19.70
2019-06-20T21:04:52.083Z,19.80
2019-06-20T21:07:21.138Z,19.90
2019-06-20T21:09:50.141Z,19.90
2019-06-20T21:12:19.099Z,20.00
2019-06-20T21:14:48.054Z,19.90
2019-06-20T21:17:16.967Z,19.80
2019-06-20T21:19:45.932Z,19.70
2019-06-20T21:22:15.111Z,19.60
2019-06-20T21:24:44.027Z,19.70
2019-06-20T21:27:13.009Z,19.60
2019-06-20T21:29:42.111Z,19.60
2019-06-20T21:32:11.129Z,19.60
2019-06-20T21:34:40.146Z,19.70
2019-06-20T21:37:09.246Z,19.70
2019-06-20T21:39:38.904Z,19.60
2019-06-20T21:42:08.012Z,19.40
2019-06-20T21:44:37.038Z,19.40
2019-06-20T21:47:06.075Z,19.30
2019-06-20T21:49:34.936Z,19.30
2019-06-20T21:52:05.615Z,19.30
2019-06-20T21:54:34.671Z,19.20
2019-06-20T21:57:03.730Z,19.10
2019-06-20T21:59:32.844Z,19.00
2019-06-20T22:02:01.918Z,18.90
2019-06-20T22:04:30.966Z,18.90
2019-06-20T22:07:00.032Z,19.00
2019-06-20T22:09:28.983Z,19.00
2019-06-20T22:11:58.124Z,19.00
2019-06-20T22:14:27.027Z,19.00
2019-06-20T22:16:56.112Z,18.80
2019-06-20T22:19:25.154Z,18.90
2019-06-20T22:21:54.250Z,18.70
2019-06-20T22:24:23.542Z,18.60
2019-06-20T22:26:52.499Z,18.50
2019-06-20T22:29:21.435Z,18.30
2019-06-20T22:31:50.506Z,18.20
2019-06-20T22:34:19.568Z,18.20
2019-06-20T22:36:48.741Z,18.10
2019-06-20T22:39:17.737Z,18.10
2019-06-20T22:41:46.803Z,18.00
2019-06-20T22:44:15.853Z,18.00
2019-06-20T22:46:44.863Z,18.10
2019-06-20T22:49:13.760Z,18.30
2019-06-20T22:51:42.887Z,18.40
2019-06-20T22:54:11.821Z,18.30
2019-06-20T22:56:40.763Z,18.40
2019-06-20T22:59:09.734Z,18.40
2019-06-20T23:01:38.636Z,18.50
2019-06-20T23:04:07.567Z,18.40
2019-06-20T23:06:36.657Z,18.50
2019-06-20T23:09:07.104Z,18.60
2019-06-20T23:11:36.089Z,18.60
2019-06-20T23:14:05.251Z,18.40
2019-06-20T23:16:34.267Z,18.30
2019-06-20T23:19:03.907Z,18.30
2019-06-20T23:21:32.923Z,18.30
2019-06-20T23:24:01.945Z,18.30
2019-06-20T23:26:30.877Z,18.20
2019-06-20T23:29:17.639Z,18.30
2019-06-20T23:31:46.494Z,18.30
2019-06-20T23:34:15.568Z,18.20
2019-06-20T23:36:44.561Z,18.10
2019-06-20T23:39:13.566Z,18.00
2019-06-20T23:41:42.585Z,18.00
2019-06-20T23:44:11.530Z,17.90
2019-06-20T23:46:40.594Z,17.80
2019-06-20T23:49:09.533Z,17.70
2019-06-20T23:51:43.136Z,17.70
2019-06-20T23:54:12.025Z,17.70
2019-06-20T23:56:41.090Z,17.70
2019-06-20T23:59:10.118Z,17.70
